createdAt,value
2022-09-04T00:04:06.988Z,16.5
2022-09-04T00:14:07.790Z,16.3
2022-09-04T00:24:08.448Z,16.2
2022-09-04T00:44:10.444Z,15.9
2022-09-04T00:54:10.573Z,15.9
2022-09-04T01:04:11.513Z,15.8
2022-09-04T01:14:11.859Z,15.7
2022-09-04T01:24:12.365Z,15.6
2022-09-04T01:34:12.823Z,15.5
2022-09-04T01:44:13.861Z,15.3
2022-09-04T01:54:14.406Z,15.2
2022-09-04T02:04:14.970Z,15.1
2022-09-04T02:14:15.933Z,15
2022-09-04T02:24:17.106Z,14.9
2022-09-04T02:34:17.875Z,14.7
2022-09-04T02:44:18.493Z,14.7
2022-09-04T02:54:18.639Z,14.5
2022-09-04T03:04:19.681Z,14.4
2022-09-04T03:14:20.011Z,14.3
2022-09-04T03:34:21.211Z,14
2022-09-04T03:44:21.382Z,13.9
2022-09-04T04:04:23.438Z,13.7
2022-09-04T04:14:24.010Z,13.6
2022-09-04T04:24:24.165Z,13.5
2022-09-04T04:34:25.167Z,13.5
2022-09-04T04:44:25.414Z,13.4
2022-09-04T04:54:25.785Z,13.4
2022-09-04T05:04:26.004Z,13.4
2022-09-04T05:14:26.929Z,13.4
2022-09-04T05:24:27.403Z,13.5
2022-09-04T05:34:28.100Z,13.6
2022-09-04T05:54:29.504Z,14.1
2022-09-04T06:04:29.699Z,14.6
2022-09-04T06:14:29.994Z,15.2
2022-09-04T06:34:30.820Z,16.3
2022-09-04T06:44:31.209Z,16.6
2022-09-04T06:54:32.156Z,16.8
2022-09-04T07:04:31.953Z,17.1
2022-09-04T07:14:32.198Z,17.5
2022-09-04T07:24:33.156Z,17.9
2022-09-04T07:34:34.200Z,18.3
2022-09-04T07:44:34.432Z,18.7
2022-09-04T07:54:35.082Z,19.3
2022-09-04T08:04:36.138Z,19.7
2022-09-04T08:14:37.137Z,20.1
2022-09-04T08:24:38.150Z,20.6
2022-09-04T08:34:38.400Z,21
2022-09-04T08:44:39.175Z,21.3
2022-09-04T08:54:39.364Z,21.6
2022-09-04T09:04:39.864Z,21.9
2022-09-04T09:14:40.844Z,22.4
2022-09-04T09:24:41.124Z,22.5
2022-09-04T09:34:41.664Z,22.8
2022-09-04T10:14:44.805Z,24.3
2022-09-04T10:15:06.711Z,24.3
2022-09-04T10:24:51.112Z,24.5
2022-09-04T10:34:52.001Z,24.8
2022-09-04T10:44:52.970Z,25
2022-09-04T10:54:53.861Z,25.5
2022-09-04T11:04:54.603Z,26
2022-09-04T11:14:55.143Z,26.3
2022-09-04T11:34:56.799Z,26.9
2022-09-04T11:44:57.080Z,27.4
2022-09-04T11:54:58.013Z,27.4
2022-09-04T12:04:58.599Z,27.5
2022-09-04T12:14:58.730Z,27.2
2022-09-04T12:24:59.318Z,26.5
2022-09-04T12:35:00.348Z,26.3
2022-09-04T12:45:00.857Z,26.4
2022-09-04T12:55:01.180Z,28.1
2022-09-04T13:05:01.618Z,29
2022-09-04T13:15:02.583Z,29.1
2022-09-04T13:25:03.666Z,28.8
2022-09-04T13:35:04.278Z,28.5
2022-09-04T13:45:04.769Z,29
2022-09-04T13:55:05.421Z,28.9
2022-09-04T14:05:05.922Z,28.6
2022-09-04T14:15:06.479Z,27.5
2022-09-04T14:25:11.501Z,28
2022-09-04T14:35:07.054Z,28.1
2022-09-04T14:45:07.464Z,28
2022-09-04T14:55:07.926Z,27.5
2022-09-04T15:05:08.716Z,27.1
2022-09-04T15:15:09.039Z,27.1
2022-09-04T15:25:09.253Z,27
2022-09-04T15:35:10.357Z,27.1
2022-09-04T15:45:10.633Z,27.3
2022-09-04T15:55:11.544Z,27.9
2022-09-04T16:05:12.285Z,27.5
2022-09-04T16:15:12.430Z,27.5
2022-09-04T16:25:13.312Z,27.1
2022-09-04T16:35:13.911Z,27.1
2022-09-04T16:45:13.992Z,27.1
2022-09-04T16:55:14.202Z,27
2022-09-04T17:05:14.772Z,26.9
2022-09-04T17:15:14.934Z,26.8
2022-09-04T17:28:51.239Z,26.6
2022-09-04T17:38:51.061Z,26.4
2022-09-04T17:45:15.409Z,26.3
2022-09-04T17:55:15.550Z,26.1
2022-09-04T18:05:16.188Z,25.8
2022-09-04T18:15:32.955Z,25.4
2022-09-04T18:25:17.554Z,24.9
2022-09-04T18:37:14.560Z,24.5
2022-09-04T18:50:27.814Z,24
2022-09-04T18:55:18.498Z,23.6
2022-09-04T19:05:18.907Z,23.3
2022-09-04T19:15:19.340Z,22.8
2022-09-04T19:25:20.397Z,22.4
2022-09-04T19:35:21.192Z,22
2022-09-04T19:46:10.750Z,21.7
2022-09-04T19:55:24.277Z,21.4
2022-09-04T20:05:22.382Z,21.2
2022-09-04T20:15:25.964Z,21
2022-09-04T20:25:22.985Z,20.8
2022-09-04T20:46:32.957Z,20.3
2022-09-04T20:55:25.180Z,20.1
2022-09-04T21:15:25.978Z,19.7
2022-09-04T21:25:26.800Z,19.5
2022-09-04T21:35:26.912Z,19.3
2022-09-04T21:45:27.153Z,19.1
2022-09-04T21:57:17.712Z,18.9
2022-09-04T22:05:27.951Z,18.8
2022-09-04T22:25:28.584Z,18.5
2022-09-04T22:35:35.851Z,18.4
2022-09-04T22:45:29.777Z,18.4
2022-09-04T22:55:39.949Z,18.3
2022-09-04T23:05:30.990Z,18.1
2022-09-04T23:15:31.521Z,18
2022-09-04T23:26:40.512Z,17.9
2022-09-04T23:35:32.793Z,17.8
2022-09-04T23:45:33.096Z,17.8
2022-09-04T23:55:36.559Z,17.6
